National Weather Service Raw Text Product

Displaying AFOS PIL: TAFDSM Received: 2018-02-09 11:34 UTC


999 
FTUS43 KDMX 091134
TAFDSM
TAF
KDSM 091134Z 0912/1012 02014G22KT 6SM -SN OVC050
      TEMPO 0912/0914 2SM -SN
     FM091500 02012KT P6SM OVC040
     FM100200 01009KT 2SM -SN OVC020
     FM101000 36007KT P6SM BKN025=